sensor_id;sensor_type;location;lat;lon;timestamp;pressure;altitude;pressure_sealevel;temperature;humidity
61506;BME280;47366;51.916;4.574;2024-02-14T00:01:22;101348.19;;;9.56;100.00
61506;BME280;47366;51.916;4.574;2024-02-14T00:03:48;101347.22;;;9.57;100.00
61506;BME280;47366;51.916;4.574;2024-02-14T00:06:14;101327.34;;;9.59;100.00
61506;BME280;47366;51.916;4.574;2024-02-14T00:08:39;101343.72;;;9.55;100.00
61506;BME280;47366;51.916;4.574;2024-02-14T00:11:04;101345.16;;;9.63;100.00
61506;BME280;47366;51.916;4.574;2024-02-14T00:13:30;101341.75;;;9.59;100.00
61506;BME280;47366;51.916;4.574;2024-02-14T00:15:57;101344.28;;;9.62;100.00
61506;BME280;47366;51.916;4.574;2024-02-14T00:18:22;101341.38;;;9.67;100.00
61506;BME280;47366;51.916;4.574;2024-02-14T00:20:48;101328.06;;;9.62;100.00
61506;BME280;47366;51.916;4.574;2024-02-14T00:23:13;101339.63;;;9.66;100.00
61506;BME280;47366;51.916;4.574;2024-02-14T00:25:39;101340.56;;;9.65;100.00
61506;BME280;47366;51.916;4.574;2024-02-14T00:28:04;101317.63;;;9.54;100.00
61506;BME280;47366;51.916;4.574;2024-02-14T00:30:31;101323.13;;;9.53;100.00
61506;BME280;47366;51.916;4.574;2024-02-14T00:32:56;101337.22;;;9.60;100.00
61506;BME280;47366;51.916;4.574;2024-02-14T00:35:21;101348.22;;;9.74;100.00
61506;BME280;47366;51.916;4.574;2024-02-14T00:37:47;101329.22;;;9.75;100.00
61506;BME280;47366;51.916;4.574;2024-02-14T00:40:12;101332.72;;;9.77;100.00
61506;BME280;47366;51.916;4.574;2024-02-14T00:42:37;101331.13;;;9.73;100.00
61506;BME280;47366;51.916;4.574;2024-02-14T00:45:03;101336.38;;;9.76;100.00
61506;BME280;47366;51.916;4.574;2024-02-14T00:47:32;101328.81;;;9.66;100.00
61506;BME280;47366;51.916;4.574;2024-02-14T00:49:58;101343.78;;;9.73;100.00
61506;BME280;47366;51.916;4.574;2024-02-14T00:52:23;101343.69;;;9.74;100.00
61506;BME280;47366;51.916;4.574;2024-02-14T00:54:49;101335.78;;;9.70;100.00
61506;BME280;47366;51.916;4.574;2024-02-14T00:57:14;101343.91;;;9.70;100.00
61506;BME280;47366;51.916;4.574;2024-02-14T00:59:40;101340.50;;;9.66;100.00
61506;BME280;47366;51.916;4.574;2024-02-14T01:02:06;101343.91;;;9.70;100.00
61506;BME280;47366;51.916;4.574;2024-02-14T01:04:32;101348.44;;;9.69;100.00
61506;BME280;47366;51.916;4.574;2024-02-14T01:06:57;101361.59;;;9.77;100.00
61506;BME280;47366;51.916;4.574;2024-02-14T01:09:23;101349.72;;;9.79;100.00
61506;BME280;47366;51.916;4.574;2024-02-14T01:11:50;101363.03;;;9.84;100.00
61506;BME280;47366;51.916;4.574;2024-02-14T01:14:15;101348.78;;;9.81;100.00
61506;BME280;47366;51.916;4.574;2024-02-14T01:16:45;101354.13;;;9.82;100.00
61506;BME280;47366;51.916;4.574;2024-02-14T01:19:11;101363.59;;;9.91;100.00
61506;BME280;47366;51.916;4.574;2024-02-14T01:21:36;101345.06;;;9.83;100.00
61506;BME280;47366;51.916;4.574;2024-02-14T01:24:02;101342.13;;;9.88;100.00
61506;BME280;47366;51.916;4.574;2024-02-14T01:26:28;101355.25;;;9.95;100.00
61506;BME280;47366;51.916;4.574;2024-02-14T01:28:53;101357.25;;;9.92;100.00
61506;BME280;47366;51.916;4.574;2024-02-14T01:31:19;101357.09;;;9.95;100.00
61506;BME280;47366;51.916;4.574;2024-02-14T01:33:45;101358.41;;;9.86;100.00
61506;BME280;47366;51.916;4.574;2024-02-14T01:36:11;101366.00;;;9.97;100.00
61506;BME280;47366;51.916;4.574;2024-02-14T01:38:36;101352.13;;;9.86;100.00
61506;BME280;47366;51.916;4.574;2024-02-14T01:41:03;101354.91;;;9.84;100.00
61506;BME280;47366;51.916;4.574;2024-02-14T01:43:28;101364.88;;;9.84;100.00
61506;BME280;47366;51.916;4.574;2024-02-14T01:45:55;101357.50;;;9.87;100.00
61506;BME280;47366;51.916;4.574;2024-02-14T01:48:21;101365.22;;;9.95;100.00
61506;BME280;47366;51.916;4.574;2024-02-14T01:50:47;101357.03;;;9.96;100.00
61506;BME280;47366;51.916;4.574;2024-02-14T01:53:12;101376.50;;;10.03;100.00
61506;BME280;47366;51.916;4.574;2024-02-14T01:55:38;101357.66;;;10.02;100.00
61506;BME280;47366;51.916;4.574;2024-02-14T01:58:03;101363.06;;;10.02;100.00
61506;BME280;47366;51.916;4.574;2024-02-14T02:00:30;101360.44;;;10.00;100.00
61506;BME280;47366;51.916;4.574;2024-02-14T02:02:56;101360.44;;;10.00;100.00
61506;BME280;47366;51.916;4.574;2024-02-14T02:05:22;101367.63;;;10.01;100.00
61506;BME280;47366;51.916;4.574;2024-02-14T02:07:48;101368.38;;;10.03;100.00
61506;BME280;47366;51.916;4.574;2024-02-14T02:10:14;101360.75;;;9.94;100.00
61506;BME280;47366;51.916;4.574;2024-02-14T02:12:40;101363.78;;;10.05;100.00
61506;BME280;47366;51.916;4.574;2024-02-14T02:15:06;101372.53;;;10.10;100.00
61506;BME280;47366;51.916;4.574;2024-02-14T02:17:32;101354.84;;;10.03;100.00
61506;BME280;47366;51.916;4.574;2024-02-14T02:20:00;101372.53;;;10.10;100.00
61506;BME280;47366;51.916;4.574;2024-02-14T02:22:25;101378.75;;;10.12;100.00
61506;BME280;47366;51.916;4.574;2024-02-14T02:24:51;101378.69;;;10.14;100.00
61506;BME280;47366;51.916;4.574;2024-02-14T02:27:16;101369.59;;;10.15;100.00
61506;BME280;47366;51.916;4.574;2024-02-14T02:29:42;101384.97;;;10.14;100.00
61506;BME280;47366;51.916;4.574;2024-02-14T02:32:07;101387.66;;;10.14;100.00
61506;BME280;47366;51.916;4.574;2024-02-14T02:34:35;101375.19;;;10.12;100.00
61506;BME280;47366;51.916;4.574;2024-02-14T02:37:03;101382.09;;;10.17;100.00
61506;BME280;47366;51.916;4.574;2024-02-14T02:39:31;101380.13;;;10.21;100.00
61506;BME280;47366;51.916;4.574;2024-02-14T02:41:56;101388.00;;;10.26;100.00
61506;BME280;47366;51.916;4.574;2024-02-14T02:44:22;101377.34;;;10.23;100.00
61506;BME280;47366;51.916;4.574;2024-02-14T02:46:48;101381.78;;;10.24;100.00
61506;BME280;47366;51.916;4.574;2024-02-14T02:49:13;101383.69;;;10.21;100.00
61506;BME280;47366;51.916;4.574;2024-02-14T02:51:39;101393.13;;;10.32;100.00
61506;BME280;47366;51.916;4.574;2024-02-14T02:54:04;101380.56;;;10.31;100.00
61506;BME280;47366;51.916;4.574;2024-02-14T02:56:30;101392.88;;;10.36;100.00
61506;BME280;47366;51.916;4.574;2024-02-14T02:58:55;101397.34;;;10.37;100.00
61506;BME280;47366;51.916;4.574;2024-02-14T03:01:20;101394.47;;;10.40;100.00
61506;BME280;47366;51.916;4.574;2024-02-14T03:03:49;101391.94;;;10.37;100.00
61506;BME280;47366;51.916;4.574;2024-02-14T03:06:14;101387.56;;;10.35;100.00
61506;BME280;47366;51.916;4.574;2024-02-14T03:08:40;101379.75;;;10.29;100.00
61506;BME280;47366;51.916;4.574;2024-02-14T03:11:05;101402.69;;;10.39;100.00
61506;BME280;47366;51.916;4.574;2024-02-14T03:13:31;101397.25;;;10.39;100.00
61506;BME280;47366;51.916;4.574;2024-02-14T03:15:57;101402.38;;;10.45;100.00
61506;BME280;47366;51.916;4.574;2024-02-14T03:18:24;101408.41;;;10.50;100.00
61506;BME280;47366;51.916;4.574;2024-02-14T03:20:49;101409.28;;;10.51;100.00
61506;BME280;47366;51.916;4.574;2024-02-14T03:23:15;101396.16;;;10.43;100.00
61506;BME280;47366;51.916;4.574;2024-02-14T03:25:41;101403.09;;;10.49;100.00
61506;BME280;47366;51.916;4.574;2024-02-14T03:28:07;101420.13;;;10.51;100.00
61506;BME280;47366;51.916;4.574;2024-02-14T03:30:37;101412.00;;;10.51;100.00
61506;BME280;47366;51.916;4.574;2024-02-14T03:33:04;101400.41;;;10.49;100.00
61506;BME280;47366;51.916;4.574;2024-02-14T03:35:30;101412.72;;;10.54;100.00
61506;BME280;47366;51.916;4.574;2024-02-14T03:37:55;101416.94;;;10.60;100.00
61506;BME280;47366;51.916;4.574;2024-02-14T03:40:21;101411.75;;;10.55;100.00
61506;BME280;47366;51.916;4.574;2024-02-14T03:42:47;101412.72;;;10.54;100.00
61506;BME280;47366;51.916;4.574;2024-02-14T03:45:12;101425.88;;;10.62;100.00
61506;BME280;47366;51.916;4.574;2024-02-14T03:47:38;101413.66;;;10.53;100.00
61506;BME280;47366;51.916;4.574;2024-02-14T03:50:05;101418.78;;;10.59;100.00
61506;BME280;47366;51.916;4.574;2024-02-14T03:52:31;101418.59;;;10.62;100.00
61506;BME280;47366;51.916;4.574;2024-02-14T03:55:02;101426.50;;;10.67;100.00
61506;BME280;47366;51.916;4.574;2024-02-14T03:57:28;101428.25;;;10.68;100.00
61506;BME280;47366;51.916;4.574;2024-02-14T03:59:59;101415.91;;;10.62;100.00
61506;BME280;47366;51.916;4.574;2024-02-14T04:02:24;101433.44;;;10.73;100.00
61506;BME280;47366;51.916;4.574;2024-02-14T04:04:53;101425.78;;;10.63;100.00
61506;BME280;47366;51.916;4.574;2024-02-14T04:07:18;101426.66;;;10.64;100.00
61506;BME280;47366;51.916;4.574;2024-02-14T04:09:43;101438.13;;;10.69;100.00
61506;BME280;47366;51.916;4.574;2024-02-14T04:12:09;101441.63;;;10.71;100.00
61506;BME280;47366;51.916;4.574;2024-02-14T04:14:35;101440.84;;;10.69;100.00
61506;BME280;47366;51.916;4.574;2024-02-14T04:17:02;101445.22;;;10.72;100.00
61506;BME280;47366;51.916;4.574;2024-02-14T04:19:27;101436.47;;;10.67;100.00
61506;BME280;47366;51.916;4.574;2024-02-14T04:21:53;101440.84;;;10.69;100.00
61506;BME280;47366;51.916;4.574;2024-02-14T04:24:18;101438.06;;;10.71;100.00
61506;BME280;47366;51.916;4.574;2024-02-14T04:26:44;101449.34;;;10.79;100.00
61506;BME280;47366;51.916;4.574;2024-02-14T04:29:09;101449.53;;;10.76;100.00
61506;BME280;47366;51.916;4.574;2024-02-14T04:31:34;101450.22;;;10.79;100.00
61506;BME280;47366;51.916;4.574;2024-02-14T04:34:00;101448.72;;;10.74;100.00
61506;BME280;47366;51.916;4.574;2024-02-14T04:36:26;101459.09;;;10.83;100.00
61506;BME280;47366;51.916;4.574;2024-02-14T04:38:51;101456.38;;;10.83;100.00
61506;BME280;47366;51.916;4.574;2024-02-14T04:41:20;101464.50;;;10.83;100.00
61506;BME280;47366;51.916;4.574;2024-02-14T04:43:46;101453.66;;;10.83;100.00
61506;BME280;47366;51.916;4.574;2024-02-14T04:46:12;101455.16;;;10.89;100.00
61506;BME280;47366;51.916;4.574;2024-02-14T04:48:38;101453.84;;;10.80;100.00
61506;BME280;47366;51.916;4.574;2024-02-14T04:51:04;101460.31;;;10.77;100.00
61506;BME280;47366;51.916;4.574;2024-02-14T04:53:32;101466.97;;;10.88;100.00
61506;BME280;47366;51.916;4.574;2024-02-14T04:55:57;101469.84;;;10.84;100.00
61506;BME280;47366;51.916;4.574;2024-02-14T04:58:23;101465.31;;;10.85;100.00
61506;BME280;47366;51.916;4.574;2024-02-14T05:00:49;101461.06;;;10.79;100.00
61506;BME280;47366;51.916;4.574;2024-02-14T05:03:14;101460.81;;;10.84;100.00
61506;BME280;47366;51.916;4.574;2024-02-14T05:05:41;101469.69;;;10.88;100.00
61506;BME280;47366;51.916;4.574;2024-02-14T05:08:06;101468.88;;;10.86;100.00
61506;BME280;47366;51.916;4.574;2024-02-14T05:10:32;101468.09;;;10.83;100.00
61506;BME280;47366;51.916;4.574;2024-02-14T05:12:57;101479.56;;;10.89;100.00
61506;BME280;47366;51.916;4.574;2024-02-14T05:15:23;101474.06;;;10.90;100.00
61506;BME280;47366;51.916;4.574;2024-02-14T05:17:49;101468.16;;;10.82;100.00
61506;BME280;47366;51.916;4.574;2024-02-14T05:20:15;101482.03;;;10.93;100.00
61506;BME280;47366;51.916;4.574;2024-02-14T05:22:41;101482.13;;;10.92;100.00
61506;BME280;47366;51.916;4.574;2024-02-14T05:25:06;101485.59;;;10.94;100.00
61506;BME280;47366;51.916;4.574;2024-02-14T05:27:35;101465.75;;;10.93;100.00
61506;BME280;47366;51.916;4.574;2024-02-14T05:30:01;101470.31;;;10.93;100.00
61506;BME280;47366;51.916;4.574;2024-02-14T05:32:30;101473.81;;;10.95;100.00
61506;BME280;47366;51.916;4.574;2024-02-14T05:34:56;101478.13;;;10.99;100.00
61506;BME280;47366;51.916;4.574;2024-02-14T05:37:21;101475.50;;;10.97;100.00
61506;BME280;47366;51.916;4.574;2024-02-14T05:39:47;101481.84;;;10.96;100.00
61506;BME280;47366;51.916;4.574;2024-02-14T05:42:12;101469.50;;;10.91;100.00
61506;BME280;47366;51.916;4.574;2024-02-14T05:44:37;101483.88;;;10.93;100.00
61506;BME280;47366;51.916;4.574;2024-02-14T05:47:03;101483.13;;;10.89;100.00
61506;BME280;47366;51.916;4.574;2024-02-14T05:49:28;101486.66;;;10.91;100.00
61506;BME280;47366;51.916;4.574;2024-02-14T05:51:54;101492.56;;;10.99;100.00
61506;BME280;47366;51.916;4.574;2024-02-14T05:54:19;101488.06;;;10.98;100.00
61506;BME280;47366;51.916;4.574;2024-02-14T05:56:45;101483.00;;;10.92;100.00
61506;BME280;47366;51.916;4.574;2024-02-14T05:59:11;101494.53;;;10.96;100.00
61506;BME280;47366;51.916;4.574;2024-02-14T06:01:37;101483.06;;;10.91;100.00
61506;BME280;47366;51.916;4.574;2024-02-14T06:04:02;101500.59;;;11.01;100.00
61506;BME280;47366;51.916;4.574;2024-02-14T06:06:28;101497.81;;;11.02;100.00
61506;BME280;47366;51.916;4.574;2024-02-14T06:08:53;101502.19;;;11.05;100.00
61506;BME280;47366;51.916;4.574;2024-02-14T06:11:18;101495.28;;;10.99;100.00
61506;BME280;47366;51.916;4.574;2024-02-14T06:13:47;101501.81;;;10.95;100.00
61506;BME280;47366;51.916;4.574;2024-02-14T06:16:12;101500.53;;;11.02;100.00
61506;BME280;47366;51.916;4.574;2024-02-14T06:18:38;101489.22;;;10.94;100.00
61506;BME280;47366;51.916;4.574;2024-02-14T06:21:05;101492.56;;;10.99;100.00
61506;BME280;47366;51.916;4.574;2024-02-14T06:23:30;101503.06;;;11.05;100.00
61506;BME280;47366;51.916;4.574;2024-02-14T06:25:56;101503.41;;;10.99;100.00
61506;BME280;47366;51.916;4.574;2024-02-14T06:28:21;101494.28;;;11.00;100.00
61506;BME280;47366;51.916;4.574;2024-02-14T06:30:47;101497.19;;;10.97;100.00
61506;BME280;47366;51.916;4.574;2024-02-14T06:33:12;101501.97;;;10.92;100.00
61506;BME280;47366;51.916;4.574;2024-02-14T06:35:37;101494.09;;;10.88;100.00
61506;BME280;47366;51.916;4.574;2024-02-14T06:38:03;101500.06;;;10.94;100.00
61506;BME280;47366;51.916;4.574;2024-02-14T06:40:28;101495.34;;;10.98;100.00
61506;BME280;47366;51.916;4.574;2024-02-14T06:42:54;101500.81;;;10.96;100.00
61506;BME280;47366;51.916;4.574;2024-02-14T06:45:20;101518.44;;;11.05;100.00
61506;BME280;47366;51.916;4.574;2024-02-14T06:47:46;101514.38;;;10.96;100.00
61506;BME280;47366;51.916;4.574;2024-02-14T06:50:11;101521.09;;;11.07;100.00
61506;BME280;47366;51.916;4.574;2024-02-14T06:52:36;101524.59;;;11.09;100.00
61506;BME280;47366;51.916;4.574;2024-02-14T06:55:02;101517.50;;;11.06;100.00
61506;BME280;47366;51.916;4.574;2024-02-14T06:57:29;101527.38;;;11.07;100.00
61506;BME280;47366;51.916;4.574;2024-02-14T06:59:54;101524.84;;;11.04;100.00
61506;BME280;47366;51.916;4.574;2024-02-14T07:02:19;101528.19;;;11.09;100.00
61506;BME280;47366;51.916;4.574;2024-02-14T07:04:46;101532.81;;;11.07;100.00
61506;BME280;47366;51.916;4.574;2024-02-14T07:07:11;101531.22;;;11.03;100.00
61506;BME280;47366;51.916;4.574;2024-02-14T07:09:37;101531.13;;;11.04;100.00
61506;BME280;47366;51.916;4.574;2024-02-14T07:12:04;101539.09;;;11.08;100.00
61506;BME280;47366;51.916;4.574;2024-02-14T07:14:29;101535.47;;;11.09;100.00
61506;BME280;47366;51.916;4.574;2024-02-14T07:16:55;101541.66;;;11.11;100.00
61506;BME280;47366;51.916;4.574;2024-02-14T07:19:20;101547.00;;;11.12;100.00
61506;BME280;47366;51.916;4.574;2024-02-14T07:21:45;101548.91;;;11.10;100.00
61506;BME280;47366;51.916;4.574;2024-02-14T07:24:11;101549.00;;;11.09;100.00
61506;BME280;47366;51.916;4.574;2024-02-14T07:26:36;101542.63;;;11.10;100.00
61506;BME280;47366;51.916;4.574;2024-02-14T07:29:02;101534.50;;;10.92;100.00
61506;BME280;47366;51.916;4.574;2024-02-14T07:31:29;101541.19;;;11.02;100.00
61506;BME280;47366;51.916;4.574;2024-02-14T07:34:00;101547.16;;;11.09;100.00
61506;BME280;47366;51.916;4.574;2024-02-14T07:36:25;101540.16;;;11.05;100.00
61506;BME280;47366;51.916;4.574;2024-02-14T07:38:50;101550.69;;;11.11;100.00
61506;BME280;47366;51.916;4.574;2024-02-14T07:41:16;101553.28;;;11.13;100.00
61506;BME280;47366;51.916;4.574;2024-02-14T07:43:41;101553.28;;;11.13;100.00
61506;BME280;47366;51.916;4.574;2024-02-14T07:46:07;101553.22;;;11.14;100.00
61506;BME280;47366;51.916;4.574;2024-02-14T07:48:33;101554.19;;;11.13;100.00
61506;BME280;47366;51.916;4.574;2024-02-14T07:50:58;101565.03;;;11.13;100.00
61506;BME280;47366;51.916;4.574;2024-02-14T07:53:25;101564.88;;;11.16;100.00
61506;BME280;47366;51.916;4.574;2024-02-14T07:55:51;101560.50;;;11.14;100.00
61506;BME280;47366;51.916;4.574;2024-02-14T07:58:16;101566.47;;;11.20;100.00
61506;BME280;47366;51.916;4.574;2024-02-14T08:00:42;101571.00;;;11.20;100.00
61506;BME280;47366;51.916;4.574;2024-02-14T08:03:07;101565.91;;;11.14;100.00
61506;BME280;47366;51.916;4.574;2024-02-14T08:05:33;101570.28;;;11.16;100.00
61506;BME280;47366;51.916;4.574;2024-02-14T08:07:59;101564.31;;;11.10;100.00
61506;BME280;47366;51.916;4.574;2024-02-14T08:10:24;101569.25;;;11.19;100.00
61506;BME280;47366;51.916;4.574;2024-02-14T08:12:49;101568.44;;;11.17;100.00
61506;BME280;47366;51.916;4.574;2024-02-14T08:15:15;101574.50;;;11.22;100.00
61506;BME280;47366;51.916;4.574;2024-02-14T08:17:41;101583.28;;;11.27;100.00
61506;BME280;47366;51.916;4.574;2024-02-14T08:20:06;101567.41;;;11.19;100.00
61506;BME280;47366;51.916;4.574;2024-02-14T08:22:32;101565.09;;;11.12;100.00
61506;BME280;47366;51.916;4.574;2024-02-14T08:24:58;101575.22;;;11.25;100.00
61506;BME280;47366;51.916;4.574;2024-02-14T08:27:23;101576.19;;;11.07;100.00
61506;BME280;47366;51.916;4.574;2024-02-14T08:29:49;101578.41;;;10.81;100.00
61506;BME280;47366;51.916;4.574;2024-02-14T08:32:14;101577.38;;;10.84;100.00
61506;BME280;47366;51.916;4.574;2024-02-14T08:34:40;101582.47;;;10.73;100.00
61506;BME280;47366;51.916;4.574;2024-02-14T08:37:05;101577.50;;;10.63;100.00
61506;BME280;47366;51.916;4.574;2024-02-14T08:39:31;101579.09;;;10.68;100.00
61506;BME280;47366;51.916;4.574;2024-02-14T08:41:57;101573.25;;;10.94;100.00
61506;BME280;47366;51.916;4.574;2024-02-14T08:44:22;101583.19;;;10.76;100.00
61506;BME280;47366;51.916;4.574;2024-02-14T08:46:47;101577.13;;;10.71;100.00
61506;BME280;47366;51.916;4.574;2024-02-14T08:49:16;101586.13;;;10.72;100.00
61506;BME280;47366;51.916;4.574;2024-02-14T08:51:41;101588.13;;;10.68;100.00
61506;BME280;47366;51.916;4.574;2024-02-14T08:54:09;101579.25;;;10.65;100.00
61506;BME280;47366;51.916;4.574;2024-02-14T08:56:34;101587.31;;;10.66;100.00
61506;BME280;47366;51.916;4.574;2024-02-14T08:59:02;101596.09;;;10.71;100.00
61506;BME280;47366;51.916;4.574;2024-02-14T09:01:28;101596.66;;;10.78;100.00
61506;BME280;47366;51.916;4.574;2024-02-14T09:03:54;101601.03;;;10.80;100.00
61506;BME280;47366;51.916;4.574;2024-02-14T09:06:20;101592.28;;;10.75;100.00
61506;BME280;47366;51.916;4.574;2024-02-14T09:08:45;101605.59;;;10.80;100.00
61506;BME280;47366;51.916;4.574;2024-02-14T09:11:11;101592.81;;;10.82;100.00
61506;BME280;47366;51.916;4.574;2024-02-14T09:13:37;101598.25;;;10.82;100.00
61506;BME280;47366;51.916;4.574;2024-02-14T09:16:03;101598.34;;;10.80;100.00
61506;BME280;47366;51.916;4.574;2024-02-14T09:18:28;101611.56;;;10.87;100.00
61506;BME280;47366;51.916;4.574;2024-02-14T09:20:56;101607.03;;;10.87;100.00
61506;BME280;47366;51.916;4.574;2024-02-14T09:23:22;101601.63;;;10.87;100.00
61506;BME280;47366;51.916;4.574;2024-02-14T09:25:48;101599.03;;;10.84;100.00
61506;BME280;47366;51.916;4.574;2024-02-14T09:28:15;101613.16;;;10.91;100.00
61506;BME280;47366;51.916;4.574;2024-02-14T09:30:41;101613.91;;;11.29;100.00
61506;BME280;47366;51.916;4.574;2024-02-14T09:33:07;101612.00;;;11.14;100.00
61506;BME280;47366;51.916;4.574;2024-02-14T09:35:32;101620.06;;;11.33;100.00
61506;BME280;47366;51.916;4.574;2024-02-14T09:37:57;101606.16;;;11.39;100.00
61506;BME280;47366;51.916;4.574;2024-02-14T09:40:25;101612.06;;;11.47;100.00
61506;BME280;47366;51.916;4.574;2024-02-14T09:42:54;101616.47;;;11.50;100.00
61506;BME280;47366;51.916;4.574;2024-02-14T09:45:26;101609.50;;;11.61;100.00
61506;BME280;47366;51.916;4.574;2024-02-14T09:47:53;101613.00;;;11.63;100.00
61506;BME280;47366;51.916;4.574;2024-02-14T09:50:20;101602.31;;;11.60;100.00
61506;BME280;47366;51.916;4.574;2024-02-14T09:52:49;101604.22;;;11.58;100.00
61506;BME280;47366;51.916;4.574;2024-02-14T09:55:15;101604.88;;;11.63;100.00
61506;BME280;47366;51.916;4.574;2024-02-14T09:57:42;101602.84;;;11.67;100.00
61506;BME280;47366;51.916;4.574;2024-02-14T10:00:11;101608.66;;;11.77;100.00
61506;BME280;47366;51.916;4.574;2024-02-14T10:02:40;101618.31;;;11.82;100.00
61506;BME280;47366;51.916;4.574;2024-02-14T10:05:05;101616.38;;;11.84;100.00
61506;BME280;47366;51.916;4.574;2024-02-14T10:07:39;101616.09;;;11.90;100.00
61506;BME280;47366;51.916;4.574;2024-02-14T10:10:06;101612.50;;;11.90;100.00
61506;BME280;47366;51.916;4.574;2024-02-14T10:12:31;101608.75;;;11.93;100.00
61506;BME280;47366;51.916;4.574;2024-02-14T10:14:57;101616.81;;;11.94;100.00
61506;BME280;47366;51.916;4.574;2024-02-14T10:17:22;101612.25;;;11.95;100.00
61506;BME280;47366;51.916;4.574;2024-02-14T10:19:58;101614.16;;;11.93;100.00
61506;BME280;47366;51.916;4.574;2024-02-14T10:22:24;101619.91;;;12.04;100.00
61506;BME280;47366;51.916;4.574;2024-02-14T10:24:50;101612.94;;;11.98;100.00
61506;BME280;47366;51.916;4.574;2024-02-14T10:27:16;101622.59;;;12.04;100.00
61506;BME280;47366;51.916;4.574;2024-02-14T10:29:41;101623.66;;;12.01;100.00
61506;BME280;47366;51.916;4.574;2024-02-14T10:32:08;101612.50;;;12.06;100.00
61506;BME280;47366;51.916;4.574;2024-02-14T10:34:37;101620.16;;;12.15;100.00
61506;BME280;47366;51.916;4.574;2024-02-14T10:37:03;101621.56;;;12.22;100.00
61506;BME280;47366;51.916;4.574;2024-02-14T10:39:32;101618.66;;;11.76;100.00
61506;BME280;47366;51.916;4.574;2024-02-14T10:42:00;101609.13;;;11.52;100.00
61506;BME280;47366;51.916;4.574;2024-02-14T10:44:27;101620.09;;;11.48;100.00
61506;BME280;47366;51.916;4.574;2024-02-14T10:46:52;101622.06;;;11.46;100.00
61506;BME280;47366;51.916;4.574;2024-02-14T10:49:21;101614.84;;;11.45;100.00
61506;BME280;47366;51.916;4.574;2024-02-14T10:51:47;101603.19;;;11.43;100.00
61506;BME280;47366;51.916;4.574;2024-02-14T10:54:14;101612.22;;;11.44;100.00
61506;BME280;47366;51.916;4.574;2024-02-14T10:56:42;101619.00;;;11.53;100.00
61506;BME280;47366;51.916;4.574;2024-02-14T10:59:13;101612.47;;;11.57;100.00
61506;BME280;47366;51.916;4.574;2024-02-14T11:01:41;101603.53;;;11.55;100.00
61506;BME280;47366;51.916;4.574;2024-02-14T11:04:07;101609.63;;;11.58;100.00
61506;BME280;47366;51.916;4.574;2024-02-14T11:06:46;101598.25;;;11.52;100.00
61506;BME280;47366;51.916;4.574;2024-02-14T11:09:12;101607.81;;;11.59;100.00
61506;BME280;47366;51.916;4.574;2024-02-14T11:11:41;101601.34;;;11.61;100.00
61506;BME280;47366;51.916;4.574;2024-02-14T11:14:08;101598.53;;;11.63;100.00
61506;BME280;47366;51.916;4.574;2024-02-14T11:16:33;101589.88;;;11.56;100.00
61506;BME280;47366;51.916;4.574;2024-02-14T11:19:10;101617.22;;;11.69;100.00
61506;BME280;47366;51.916;4.574;2024-02-14T11:21:39;101613.63;;;11.68;100.00
61506;BME280;47366;51.916;4.574;2024-02-14T11:24:07;101601.97;;;11.66;100.00
61506;BME280;47366;51.916;4.574;2024-02-14T11:27:01;101609.88;;;11.71;100.00
61506;BME280;47366;51.916;4.574;2024-02-14T11:29:30;101607.25;;;11.69;100.00
61506;BME280;47366;51.916;4.574;2024-02-14T11:31:59;101609.78;;;11.73;100.00
61506;BME280;47366;51.916;4.574;2024-02-14T11:34:28;101601.75;;;11.71;100.00
61506;BME280;47366;51.916;4.574;2024-02-14T11:36:54;101594.78;;;11.65;100.00
61506;BME280;47366;51.916;4.574;2024-02-14T11:39:20;101586.56;;;11.67;100.00
61506;BME280;47366;51.916;4.574;2024-02-14T11:41:46;101597.09;;;11.73;100.00
61506;BME280;47366;51.916;4.574;2024-02-14T11:44:11;101585.69;;;11.66;100.00
61506;BME280;47366;51.916;4.574;2024-02-14T11:46:39;101595.25;;;11.74;100.00
61506;BME280;47366;51.916;4.574;2024-02-14T11:49:05;101596.31;;;11.71;100.00
61506;BME280;47366;51.916;4.574;2024-02-14T11:51:33;101591.69;;;11.73;100.00
61506;BME280;47366;51.916;4.574;2024-02-14T11:54:01;101602.44;;;11.75;100.00
61506;BME280;47366;51.916;4.574;2024-02-14T11:56:36;101588.16;;;11.71;100.00
61506;BME280;47366;51.916;4.574;2024-02-14T11:59:03;101598.66;;;11.77;100.00
61506;BME280;47366;51.916;4.574;2024-02-14T12:01:30;101575.72;;;11.67;100.00
61506;BME280;47366;51.916;4.574;2024-02-14T12:03:57;101574.13;;;11.63;100.00
61506;BME280;47366;51.916;4.574;2024-02-14T12:06:23;101589.63;;;11.61;100.00
61506;BME280;47366;51.916;4.574;2024-02-14T12:08:49;101584.81;;;11.66;100.00
61506;BME280;47366;51.916;4.574;2024-02-14T12:11:17;101601.50;;;11.76;100.00
61506;BME280;47366;51.916;4.574;2024-02-14T12:13:42;101595.97;;;11.77;100.00
61506;BME280;47366;51.916;4.574;2024-02-14T12:16:10;101579.59;;;11.79;100.00
61506;BME280;47366;51.916;4.574;2024-02-14T12:18:35;101584.94;;;11.80;100.00
61506;BME280;47366;51.916;4.574;2024-02-14T12:21:07;101599.41;;;11.81;100.00
61506;BME280;47366;51.916;4.574;2024-02-14T12:23:33;101588.28;;;11.85;100.00
61506;BME280;47366;51.916;4.574;2024-02-14T12:26:03;101582.13;;;11.82;100.00
61506;BME280;47366;51.916;4.574;2024-02-14T12:28:30;101584.69;;;11.85;100.00
61506;BME280;47366;51.916;4.574;2024-02-14T12:30:57;101589.16;;;11.86;100.00
61506;BME280;47366;51.916;4.574;2024-02-14T12:33:23;101595.72;;;11.82;100.00
61506;BME280;47366;51.916;4.574;2024-02-14T12:35:50;101584.16;;;11.78;100.00